Terminal Aerodrome Forecast
Issued by NWS

Home | Current Version | Previous Version | Text Only | Print | Product List | Glossary On
Versions: 1 2 3 4 5 6 7 8 9 10 11 12
926
FTUS44 KEPZ 261721
TAFDMN
TAF
KDMN 261721Z 2618/2718 09015G25KT P6SM BKN070
     FM270300 08010KT P6SM BKN070 BKN200
     FM271500 09009KT P6SM SCT060 SCT200=

USA.gov is the U.S. government's official web portal to all federal, state and local government web resources and services.